| time (UTC) | temp F | wind direction | speed MPH | gust MPH | rain 1hr in | rain 24hr in | rain mn in | humidity % | barometer mb |
| 20260509032244 | 61 | 280 | 2.0 | 3.0 | 0.00 | 0.00 | 0.00 | 34 | 1003.4 |
| 20260509031742 | 61 | 123 | 1.0 | 2.0 | 0.00 | 0.00 | 0.00 | 34 | 1003.3 |
| 20260509031239 | 62 | 355 | 4.0 | 5.0 | 0.00 | 0.00 | 0.00 | 34 | 1003.3 |
| 20260509030737 | 62 | 132 | 4.0 | 5.0 | 0.00 | 0.00 | 0.00 | 34 | 1003.2 |
| 20260509030234 | 62 | 324 | 4.0 | 5.0 | 0.00 | 0.00 | 0.00 | 34 | 1003.2 |
| 20260509025731 | 62 | 82 | 4.0 | 5.0 | 0.00 | 0.00 | 0.00 | 34 | 1003.4 |
| 20260509025227 | 63 | 172 | 2.0 | 5.0 | 0.00 | 0.00 | 0.00 | 34 | 1003.0 |
| 20260509024722 | 63 | 301 | 4.0 | 5.0 | 0.00 | 0.00 | 0.00 | 33 | 1002.9 |
| 20260509024218 | 63 | 308 | 2.0 | 3.0 | 0.00 | 0.00 | 0.00 | 33 | 1002.9 |
| 20260509023716 | 64 | 288 | 4.0 | 7.0 | 0.00 | 0.00 | 0.00 | 33 | 1003.0 |
| 20260509023213 | 63 | 169 | 2.0 | 2.0 | 0.00 | 0.00 | 0.00 | 33 | 1003.0 |
| 20260509022708 | 64 | 343 | 6.0 | 9.0 | 0.00 | 0.00 | 0.00 | 33 | 1002.6 |
| 20260509022207 | 64 | 259 | 2.0 | 3.0 | 0.00 | 0.00 | 0.00 | 32 | 1002.7 |
| 20260509021703 | 64 | 249 | 2.0 | 5.0 | 0.00 | 0.00 | 0.00 | 32 | 1002.7 |
| 20260509021201 | 64 | 306 | 4.0 | 5.0 | 0.00 | 0.00 | 0.00 | 31 | 1002.6 |
| 20260509020659 | 65 | 135 | 2.0 | 3.0 | 0.00 | 0.00 | 0.00 | 31 | 1002.4 |
| 20260509020155 | 64 | 290 | 9.0 | 15.0 | 0.00 | 0.00 | 0.00 | 31 | 1002.2 |
| 20260509015654 | 65 | 181 | 1.0 | 2.0 | 0.00 | 0.00 | 0.00 | 31 | 1002.3 |
| 20260509015152 | 65 | 322 | 3.0 | 3.0 | 0.00 | 0.00 | 0.00 | 30 | 1002.1 |
| 20260509014648 | 66 | 356 | 2.0 | 3.0 | 0.00 | 0.00 | 0.00 | 30 | 1002.1 |
| 20260509014144 | 65 | 96 | 4.0 | 5.0 | 0.00 | 0.00 | 0.00 | 30 | 1002.0 |
| 20260509013641 | 66 | 163 | 2.0 | 5.0 | 0.00 | 0.00 | 0.00 | 30 | 1001.9 |
| 20260509013137 | 66 | 258 | 2.0 | 3.0 | 0.00 | 0.00 | 0.00 | 28 | 1001.8 |
| 20260509012634 | 66 | 248 | 8.0 | 14.0 | 0.00 | 0.00 | 0.00 | 28 | 1001.6 |
| 20260509012131 | 67 | 137 | 2.0 | 3.0 | 0.00 | 0.00 | 0.00 | 28 | 1001.8 |
| 20260509011629 | 67 | 69 | 3.0 | 3.0 | 0.00 | 0.00 | 0.00 | 27 | 1001.7 |
| 20260509011126 | 67 | 326 | 2.0 | 2.0 | 0.00 | 0.00 | 0.00 | 28 | 1001.6 |
| 20260509010623 | 68 | 176 | 2.0 | 3.0 | 0.00 | 0.00 | 0.00 | 27 | 1001.7 |
| 20260509010119 | 68 | 191 | 8.0 | 12.0 | 0.00 | 0.00 | 0.00 | 27 | 1001.7 |
| 20260509005618 | 68 | 155 | 1.0 | 2.0 | 0.00 | 0.00 | 0.00 | 28 | 1001.4 |
| 20260509005113 | 68 | 175 | 1.0 | 2.0 | 0.00 | 0.00 | 0.00 | 27 | 1001.4 |
| 20260509004609 | 69 | 264 | 2.0 | 5.0 | 0.00 | 0.00 | 0.00 | 26 | 1001.5 |
| 20260509004107 | 69 | 294 | 2.0 | 3.0 | 0.00 | 0.00 | 0.00 | 27 | 1001.5 |
| 20260509003605 | 69 | 205 | 2.0 | 2.0 | 0.00 | 0.00 | 0.00 | 26 | 1001.4 |
| 20260509003102 | 69 | 141 | 3.0 | 5.0 | 0.00 | 0.00 | 0.00 | 27 | 1001.3 |
| 20260509002559 | 70 | 164 | 2.0 | 3.0 | 0.00 | 0.00 | 0.00 | 26 | 1001.4 |
| 20260509002057 | 70 | 252 | 6.0 | 9.0 | 0.00 | 0.00 | 0.00 | 26 | 1001.5 |
| 20260509001554 | 70 | 176 | 3.0 | 5.0 | 0.00 | 0.00 | 0.00 | 26 | 1001.3 |
| 20260509001049 | 70 | 20 | 6.0 | 9.0 | 0.00 | 0.00 | 0.00 | 27 | 1001.6 |
| 20260509000548 | 70 | 51 | 2.0 | 2.0 | 0.00 | 0.00 | 0.00 | 27 | 1001.4 |
| 20260509000044 | 70 | 331 | 14.0 | 19.0 | 0.00 | 0.00 | 0.00 | 26 | 1001.4 |
| 20260508235542 | 70 | 161 | 2.0 | 5.0 | 0.00 | 0.00 | 0.00 | 27 | 1001.6 |
| 20260508235038 | 70 | 22 | 3.0 | 9.0 | 0.00 | 0.00 | 0.00 | 27 | 1001.4 |
| 20260508234535 | 70 | 176 | 3.0 | 5.0 | 0.00 | 0.00 | 0.00 | 27 | 1001.5 |
| 20260508234032 | 71 | 192 | 2.0 | 3.0 | 0.00 | 0.00 | 0.00 | 27 | 1001.7 |
| 20260508233532 | 71 | 209 | 3.0 | 3.0 | 0.00 | 0.00 | 0.00 | 27 | 1001.5 |
| 20260508233028 | 71 | 28 | 3.0 | 3.0 | 0.00 | 0.00 | 0.00 | 27 | 1001.3 |
| 20260508232525 | 71 | 210 | 2.0 | 2.0 | 0.00 | 0.00 | 0.00 | 28 | 1001.5 |
| 20260508232022 | 71 | 131 | 2.0 | 2.0 | 0.00 | 0.00 | 0.00 | 27 | 1001.5 |
| 20260508231520 | 71 | 161 | 4.0 | 5.0 | 0.00 | 0.00 | 0.00 | 27 | 1001.8 |
| 20260508231017 | 72 | 171 | 2.0 | 3.0 | 0.00 | 0.00 | 0.00 | 27 | 1001.4 |
| 20260508230513 | 73 | 144 | 7.0 | 12.0 | 0.00 | 0.00 | 0.00 | 26 | 1001.6 |
| 20260508230010 | 73 | 277 | 3.0 | 5.0 | 0.00 | 0.00 | 0.00 | 26 | 1001.5 |
| 20260508225508 | 73 | 177 | 0.0 | 0.0 | 0.00 | 0.00 | 0.00 | 27 | 1001.6 |
| 20260508225004 | 73 | 168 | 1.0 | 2.0 | 0.00 | 0.00 | 0.00 | 28 | 1001.5 |
| 20260508224502 | 72 | 14 | 5.0 | 9.0 | 0.00 | 0.00 | 0.00 | 26 | 1001.6 |
| 20260508223959 | 72 | 164 | 2.0 | 3.0 | 0.00 | 0.00 | 0.00 | 27 | 1001.7 |
| 20260508223457 | 72 | 188 | 1.0 | 2.0 | 0.00 | 0.00 | 0.00 | 26 | 1001.7 |
| 20260508222954 | 73 | 301 | 5.0 | 5.0 | 0.00 | 0.00 | 0.00 | 25 | 1001.5 |
| 20260508222451 | 73 | 153 | 1.0 | 2.0 | 0.00 | 0.00 | 0.00 | 27 | 1001.8 |
| 20260508221947 | 74 | 302 | 5.0 | 7.0 | 0.00 | 0.00 | 0.00 | 25 | 1001.7 |
| 20260508221443 | 74 | 170 | 1.0 | 2.0 | 0.00 | 0.00 | 0.00 | 26 | 1001.8 |
| 20260508220940 | 74 | 217 | 2.0 | 3.0 | 0.00 | 0.00 | 0.00 | 26 | 1001.8 |
| 20260508220437 | 75 | 188 | 2.0 | 2.0 | 0.00 | 0.00 | 0.00 | 26 | 1002.1 |
| 20260508215933 | 74 | 322 | 2.0 | 3.0 | 0.00 | 0.00 | 0.00 | 26 | 1001.8 |
| 20260508215430 | 73 | 165 | 0.0 | 2.0 | 0.00 | 0.00 | 0.00 | 26 | 1001.9 |
| 20260508214926 | 73 | 304 | 2.0 | 3.0 | 0.00 | 0.00 | 0.00 | 26 | 1002.0 |
| 20260508214424 | 72 | 160 | 0.0 | 0.0 | 0.00 | 0.00 | 0.00 | 29 | 1002.1 |
| 20260508213920 | 72 | 15 | 4.0 | 5.0 | 0.00 | 0.00 | 0.00 | 27 | 1002.1 |
| 20260508213418 | 72 | 156 | 2.0 | 2.0 | 0.00 | 0.00 | 0.00 | 27 | 1002.2 |
| 20260508212913 | 73 | 19 | 2.0 | 3.0 | 0.00 | 0.00 | 0.00 | 26 | 1002.1 |
| 20260508212410 | 74 | 152 | 3.0 | 3.0 | 0.00 | 0.00 | 0.00 | 26 | 1002.2 |
| 20260508211906 | 73 | 0 | 2.0 | 3.0 | 0.00 | 0.00 | 0.00 | 27 | 1002.4 |
| 20260508211401 | 71 | 256 | 2.0 | 3.0 | 0.00 | 0.00 | 0.00 | 27 | 1002.3 |
| 20260508210859 | 71 | 134 | 3.0 | 5.0 | 0.00 | 0.00 | 0.00 | 26 | 1002.4 |
| 20260508210355 | 72 | 180 | 2.0 | 3.0 | 0.00 | 0.00 | 0.00 | 26 | 1002.6 |
| 20260508205852 | 73 | 3 | 4.0 | 5.0 | 0.00 | 0.00 | 0.00 | 25 | 1002.7 |
| 20260508205349 | 74 | 154 | 3.0 | 3.0 | 0.00 | 0.00 | 0.00 | 25 | 1002.6 |
| 20260508204845 | 74 | 58 | 3.0 | 5.0 | 0.00 | 0.00 | 0.00 | 26 | 1002.6 |
| 20260508204342 | 73 | 150 | 0.0 | 2.0 | 0.00 | 0.00 | 0.00 | 26 | 1002.7 |
| 20260508203838 | 74 | 193 | 2.0 | 3.0 | 0.00 | 0.00 | 0.00 | 26 | 1003.0 |
| 20260508203334 | 73 | 321 | 8.0 | 12.0 | 0.00 | 0.00 | 0.00 | 25 | 1003.3 |
| 20260508202830 | 72 | 11 | 4.0 | 5.0 | 0.00 | 0.00 | 0.00 | 26 | 1003.0 |
| 20260508202328 | 71 | 203 | 5.0 | 7.0 | 0.00 | 0.00 | 0.00 | 27 | 1003.3 |
| 20260508201825 | 71 | 37 | 5.0 | 7.0 | 0.00 | 0.00 | 0.00 | 27 | 1003.4 |
| 20260508201322 | 71 | 184 | 2.0 | 3.0 | 0.00 | 0.00 | 0.00 | 27 | 1003.3 |
| 20260508200813 | 71 | 313 | 4.0 | 7.0 | 0.00 | 0.00 | 0.00 | 27 | 1003.5 |
| 20260508200309 | 72 | 259 | 4.0 | 9.0 | 0.00 | 0.00 | 0.00 | 27 | 1003.4 |
| 20260508195805 | 73 | 196 | 3.0 | 3.0 | 0.00 | 0.00 | 0.00 | 25 | 1003.6 |
| 20260508195305 | 71 | 255 | 2.0 | 3.0 | 0.00 | 0.00 | 0.00 | 25 | 1003.6 |
| 20260508194758 | 71 | 260 | 3.0 | 5.0 | 0.00 | 0.00 | 0.00 | 26 | 1003.8 |
| 20260508194256 | 71 | 164 | 2.0 | 3.0 | 0.00 | 0.00 | 0.00 | 25 | 1003.9 |
| 20260508193753 | 71 | 122 | 4.0 | 5.0 | 0.00 | 0.00 | 0.00 | 27 | 1003.8 |
| 20260508193249 | 70 | 358 | 6.0 | 7.0 | 0.00 | 0.00 | 0.00 | 26 | 1004.0 |
| 20260508192745 | 70 | 204 | 2.0 | 2.0 | 0.00 | 0.00 | 0.00 | 26 | 1003.8 |
| 20260508192243 | 71 | 354 | 8.0 | 10.0 | 0.00 | 0.00 | 0.00 | 24 | 1003.9 |
| 20260508191740 | 72 | 187 | 4.0 | 7.0 | 0.00 | 0.00 | 0.00 | 24 | 1004.0 |
| 20260508191237 | 71 | 14 | 5.0 | 7.0 | 0.00 | 0.00 | 0.00 | 25 | 1004.1 |
| 20260508190734 | 70 | 265 | 3.0 | 5.0 | 0.00 | 0.00 | 0.00 | 25 | 1004.3 |
| 20260508190230 | 71 | 218 | 3.0 | 3.0 | 0.00 | 0.00 | 0.00 | 25 | 1004.3 |
| 20260508185727 | 71 | 46 | 5.0 | 7.0 | 0.00 | 0.00 | 0.00 | 24 | 1004.3 |
| 20260508185225 | 72 | 356 | 4.0 | 5.0 | 0.00 | 0.00 | 0.00 | 26 | 1004.1 |
| 20260508184721 | 73 | 20 | 8.0 | 12.0 | 0.00 | 0.00 | 0.00 | 25 | 1004.3 |
| 20260508184219 | 74 | 169 | 2.0 | 3.0 | 0.00 | 0.00 | 0.00 | 26 | 1004.3 |
| 20260508183715 | 74 | 340 | 6.0 | 9.0 | 0.00 | 0.00 | 0.00 | 23 | 1004.3 |
| 20260508183212 | 73 | 348 | 2.0 | 5.0 | 0.00 | 0.00 | 0.00 | 27 | 1004.4 |
| 20260508182707 | 72 | 279 | 1.0 | 2.0 | 0.00 | 0.00 | 0.00 | 27 | 1004.5 |
| 20260508182204 | 72 | 139 | 1.0 | 3.0 | 0.00 | 0.00 | 0.00 | 26 | 1004.6 |
| 20260508181700 | 71 | 187 | 2.0 | 3.0 | 0.00 | 0.00 | 0.00 | 27 | 1004.7 |
| 20260508181157 | 71 | 166 | 2.0 | 3.0 | 0.00 | 0.00 | 0.00 | 24 | 1005.0 |
| 20260508180654 | 71 | 348 | 2.0 | 5.0 | 0.00 | 0.00 | 0.00 | 26 | 1004.8 |
| 20260508180151 | 71 | 98 | 4.0 | 7.0 | 0.00 | 0.00 | 0.00 | 25 | 1005.0 |
| 20260508175647 | 72 | 329 | 2.0 | 3.0 | 0.00 | 0.00 | 0.00 | 26 | 1005.2 |
| 20260508175144 | 71 | 232 | 2.0 | 3.0 | 0.00 | 0.00 | 0.00 | 27 | 1005.3 |
| 20260508174642 | 71 | 200 | 2.0 | 3.0 | 0.00 | 0.00 | 0.00 | 25 | 1005.4 |
| 20260508174138 | 71 | 153 | 3.0 | 5.0 | 0.00 | 0.00 | 0.00 | 26 | 1005.2 |
| 20260508173635 | 72 | 255 | 2.0 | 3.0 | 0.00 | 0.00 | 0.00 | 24 | 1005.7 |
| 20260508173131 | 71 | 171 | 1.0 | 2.0 | 0.00 | 0.00 | 0.00 | 28 | 1005.6 |
| 20260508172628 | 70 | 271 | 2.0 | 2.0 | 0.00 | 0.00 | 0.00 | 28 | 1005.8 |
| 20260508172124 | 70 | 187 | 1.0 | 2.0 | 0.00 | 0.00 | 0.00 | 29 | 1005.8 |
| 20260508171621 | 69 | 168 | 1.0 | 3.0 | 0.00 | 0.00 | 0.00 | 26 | 1005.9 |
| 20260508171118 | 69 | 175 | 2.0 | 3.0 | 0.00 | 0.00 | 0.00 | 29 | 1006.1 |
| 20260508170615 | 69 | 171 | 2.0 | 5.0 | 0.00 | 0.00 | 0.00 | 28 | 1006.2 |
| 20260508170112 | 68 | 257 | 2.0 | 3.0 | 0.00 | 0.00 | 0.00 | 28 | 1006.2 |
| 20260508165609 | 69 | 275 | 2.0 | 3.0 | 0.00 | 0.00 | 0.00 | 27 | 1006.2 |
| 20260508165106 | 68 | 143 | 2.0 | 3.0 | 0.00 | 0.00 | 0.00 | 29 | 1006.4 |
| 20260508164602 | 68 | 192 | 4.0 | 5.0 | 0.00 | 0.00 | 0.00 | 28 | 1006.4 |
| 20260508164059 | 67 | 183 | 3.0 | 5.0 | 0.00 | 0.00 | 0.00 | 30 | 1006.4 |
| 20260508163557 | 66 | 15 | 2.0 | 3.0 | 0.00 | 0.00 | 0.00 | 30 | 1006.5 |
| 20260508163053 | 66 | 322 | 11.0 | 21.0 | 0.00 | 0.00 | 0.00 | 29 | 1006.7 |
| 20260508162550 | 66 | 183 | 2.0 | 2.0 | 0.00 | 0.00 | 0.00 | 32 | 1006.6 |
| 20260508162048 | 65 | 178 | 1.0 | 2.0 | 0.00 | 0.00 | 0.00 | 32 | 1006.7 |
| 20260508161544 | 64 | 143 | 1.0 | 2.0 | 0.00 | 0.00 | 0.00 | 35 | 1006.8 |
| 20260508161042 | 64 | 172 | 2.0 | 3.0 | 0.00 | 0.00 | 0.00 | 34 | 1006.8 |
| 20260508160540 | 63 | 106 | 3.0 | 5.0 | 0.00 | 0.00 | 0.00 | 33 | 1007.0 |
| 20260508160037 | 62 | 33 | 4.0 | 9.0 | 0.00 | 0.00 | 0.00 | 34 | 1006.9 |
| 20260508155534 | 62 | 130 | 4.0 | 5.0 | 0.00 | 0.00 | 0.00 | 34 | 1007.1 |
| 20260508155031 | 62 | 194 | 4.0 | 5.0 | 0.00 | 0.00 | 0.00 | 35 | 1006.8 |
| 20260508154528 | 61 | 173 | 1.0 | 2.0 | 0.00 | 0.00 | 0.00 | 35 | 1007.1 |
| 20260508154025 | 61 | 184 | 4.0 | 5.0 | 0.00 | 0.00 | 0.00 | 35 | 1007.1 |
| 20260508153522 | 60 | 160 | 2.0 | 2.0 | 0.00 | 0.00 | 0.00 | 37 | 1007.3 |
| 20260508153018 | 59 | 160 | 0.0 | 2.0 | 0.00 | 0.00 | 0.00 | 38 | 1007.3 |
| 20260508152515 | 59 | 163 | 2.0 | 3.0 | 0.00 | 0.00 | 0.00 | 36 | 1007.3 |
| 20260508152010 | 60 | 181 | 4.0 | 9.0 | 0.00 | 0.00 | 0.00 | 36 | 1007.6 |
| 20260508151508 | 59 | 205 | 2.0 | 3.0 | 0.00 | 0.00 | 0.00 | 37 | 1007.3 |
| 20260508151004 | 59 | 219 | 2.0 | 3.0 | 0.00 | 0.00 | 0.00 | 37 | 1007.3 |
| 20260508150501 | 59 | 301 | 5.0 | 9.0 | 0.00 | 0.00 | 0.00 | 37 | 1007.5 |
| 20260508145956 | 60 | 183 | 3.0 | 3.0 | 0.00 | 0.00 | 0.00 | 36 | 1007.5 |
| 20260508145453 | 61 | 209 | 6.0 | 9.0 | 0.00 | 0.00 | 0.00 | 35 | 1007.6 |
| 20260508144950 | 60 | 201 | 2.0 | 2.0 | 0.00 | 0.00 | 0.00 | 37 | 1007.6 |
| 20260508144447 | 59 | 161 | 1.0 | 2.0 | 0.00 | 0.00 | 0.00 | 39 | 1007.4 |
| 20260508143945 | 58 | 160 | 2.0 | 3.0 | 0.00 | 0.00 | 0.00 | 39 | 1007.6 |
| 20260508143442 | 56 | 187 | 1.0 | 2.0 | 0.00 | 0.00 | 0.00 | 42 | 1007.7 |
| 20260508142938 | 56 | 291 | 2.0 | 3.0 | 0.00 | 0.00 | 0.00 | 40 | 1007.6 |
| 20260508142436 | 56 | 198 | 1.0 | 2.0 | 0.00 | 0.00 | 0.00 | 41 | 1007.7 |
| 20260508141932 | 56 | 205 | 0.0 | 2.0 | 0.00 | 0.00 | 0.00 | 41 | 1007.6 |
| 20260508141429 | 56 | 156 | 2.0 | 3.0 | 0.00 | 0.00 | 0.00 | 38 | 1007.7 |
| 20260508140927 | 55 | 176 | 2.0 | 2.0 | 0.00 | 0.00 | 0.00 | 39 | 1007.8 |
| 20260508140423 | 55 | 170 | 0.0 | 2.0 | 0.00 | 0.00 | 0.00 | 42 | 1007.6 |
| 20260508135919 | 55 | 117 | 1.0 | 3.0 | 0.00 | 0.00 | 0.00 | 40 | 1007.8 |
| 20260508135416 | 54 | 169 | 0.0 | 0.0 | 0.00 | 0.00 | 0.00 | 41 | 1008.0 |
| 20260508134912 | 54 | 209 | 2.0 | 7.0 | 0.00 | 0.00 | 0.00 | 40 | 1007.7 |
| 20260508134408 | 54 | 162 | 2.0 | 3.0 | 0.00 | 0.00 | 0.00 | 40 | 1007.8 |
| 20260508133906 | 54 | 153 | 5.0 | 9.0 | 0.00 | 0.00 | 0.00 | 40 | 1008.0 |
| 20260508133403 | 54 | 127 | 2.0 | 3.0 | 0.00 | 0.00 | 0.00 | 40 | 1008.1 |
| 20260508132900 | 54 | 177 | 0.0 | 2.0 | 0.00 | 0.00 | 0.00 | 40 | 1008.0 |
| 20260508132358 | 53 | 181 | 1.0 | 2.0 | 0.00 | 0.00 | 0.00 | 41 | 1008.1 |
| 20260508131854 | 53 | 161 | 0.0 | 0.0 | 0.00 | 0.00 | 0.00 | 42 | 1008.1 |
| 20260508131350 | 51 | 180 | 4.0 | 7.0 | 0.00 | 0.00 | 0.00 | 41 | 1007.9 |
| 20260508130847 | 51 | 191 | 2.0 | 5.0 | 0.00 | 0.00 | 0.00 | 42 | 1007.9 |
| 20260508130343 | 50 | 178 | 2.0 | 3.0 | 0.00 | 0.00 | 0.00 | 43 | 1008.0 |
| 20260508125840 | 50 | 179 | 1.0 | 2.0 | 0.00 | 0.00 | 0.00 | 44 | 1008.1 |
| 20260508125336 | 49 | 191 | 2.0 | 5.0 | 0.00 | 0.00 | 0.00 | 44 | 1008.0 |
| 20260508124834 | 48 | 166 | 0.0 | 0.0 | 0.00 | 0.00 | 0.00 | 45 | 1008.4 |
| 20260508124331 | 48 | 186 | 1.0 | 2.0 | 0.00 | 0.00 | 0.00 | 47 | 1008.1 |
| 20260508123829 | 48 | 208 | 2.0 | 2.0 | 0.00 | 0.00 | 0.00 | 48 | 1008.2 |
| 20260508123327 | 48 | 184 | 1.0 | 2.0 | 0.00 | 0.00 | 0.00 | 47 | 1008.2 |
| 20260508122823 | 47 | 349 | 2.0 | 3.0 | 0.00 | 0.00 | 0.00 | 47 | 1008.1 |
| 20260508122320 | 47 | 169 | 0.0 | 0.0 | 0.00 | 0.00 | 0.00 | 49 | 1008.2 |
| 20260508121818 | 46 | 170 | 0.0 | 0.0 | 0.00 | 0.00 | 0.00 | 49 | 1008.0 |
| 20260508121316 | 45 | 190 | 2.0 | 3.0 | 0.00 | 0.00 | 0.00 | 50 | 1008.0 |
| 20260508120813 | 45 | 176 | 1.0 | 2.0 | 0.00 | 0.00 | 0.00 | 51 | 1007.9 |
| 20260508120311 | 44 | 173 | 0.0 | 0.0 | 0.00 | 0.00 | 0.00 | 53 | 1008.0 |
| 20260508115808 | 43 | 222 | 2.0 | 3.0 | 0.00 | 0.00 | 0.00 | 53 | 1007.9 |
| 20260508115306 | 42 | 173 | 0.0 | 2.0 | 0.00 | 0.00 | 0.00 | 55 | 1008.0 |
| 20260508114802 | 41 | 166 | 0.0 | 0.0 | 0.00 | 0.00 | 0.00 | 57 | 1007.9 |
| 20260508114259 | 41 | 170 | 0.0 | 0.0 | 0.00 | 0.00 | 0.00 | 58 | 1008.0 |
| 20260508113755 | 40 | 164 | 0.0 | 0.0 | 0.00 | 0.00 | 0.00 | 60 | 1008.0 |
| 20260508113254 | 39 | 173 | 0.0 | 0.0 | 0.00 | 0.00 | 0.00 | 62 | 1007.9 |
| 20260508112750 | 38 | 164 | 0.0 | 0.0 | 0.00 | 0.00 | 0.00 | 64 | 1008.0 |
| 20260508112247 | 38 | 164 | 0.0 | 0.0 | 0.00 | 0.00 | 0.00 | 65 | 1008.1 |
| 20260508111743 | 38 | 162 | 0.0 | 0.0 | 0.00 | 0.00 | 0.00 | 66 | 1008.0 |
| 20260508111241 | 37 | 162 | 0.0 | 0.0 | 0.00 | 0.00 | 0.00 | 67 | 1007.9 |
| 20260508110738 | 37 | 164 | 0.0 | 0.0 | 0.00 | 0.00 | 0.00 | 69 | 1007.8 |
| 20260508110235 | 36 | 162 | 0.0 | 0.0 | 0.00 | 0.00 | 0.00 | 70 | 1008.0 |
| 20260508105730 | 36 | 162 | 0.0 | 0.0 | 0.00 | 0.00 | 0.00 | 71 | 1008.0 |
| 20260508105227 | 36 | 166 | 0.0 | 0.0 | 0.00 | 0.00 | 0.00 | 72 | 1007.7 |
| 20260508104724 | 36 | 164 | 0.0 | 0.0 | 0.00 | 0.00 | 0.00 | 72 | 1007.9 |
| 20260508104221 | 36 | 162 | 0.0 | 0.0 | 0.00 | 0.00 | 0.00 | 73 | 1007.8 |
| 20260508103719 | 36 | 165 | 0.0 | 0.0 | 0.00 | 0.00 | 0.00 | 73 | 1007.9 |
| 20260508103215 | 35 | 166 | 0.0 | 0.0 | 0.00 | 0.00 | 0.00 | 73 | 1007.9 |
| 20260508102712 | 35 | 166 | 0.0 | 0.0 | 0.00 | 0.00 | 0.00 | 73 | 1008.0 |
| 20260508102210 | 35 | 166 | 0.0 | 0.0 | 0.00 | 0.00 | 0.00 | 74 | 1007.8 |
| 20260508101707 | 35 | 166 | 0.0 | 0.0 | 0.00 | 0.00 | 0.00 | 74 | 1008.1 |
| 20260508101205 | 35 | 165 | 0.0 | 0.0 | 0.00 | 0.00 | 0.00 | 74 | 1008.0 |
| 20260508100702 | 35 | 165 | 0.0 | 0.0 | 0.00 | 0.00 | 0.00 | 74 | 1008.1 |
| 20260508100200 | 35 | 165 | 0.0 | 0.0 | 0.00 | 0.00 | 0.00 | 74 | 1008.0 |
| 20260508095656 | 35 | 165 | 0.0 | 0.0 | 0.00 | 0.00 | 0.00 | 73 | 1008.0 |
| 20260508095154 | 35 | 165 | 0.0 | 0.0 | 0.00 | 0.00 | 0.00 | 73 | 1008.0 |
| 20260508094650 | 35 | 165 | 0.0 | 0.0 | 0.00 | 0.00 | 0.00 | 72 | 1008.2 |
| 20260508094147 | 35 | 165 | 0.0 | 0.0 | 0.00 | 0.00 | 0.00 | 72 | 1008.2 |
| 20260508093644 | 35 | 167 | 0.0 | 0.0 | 0.00 | 0.00 | 0.00 | 71 | 1008.2 |
| 20260508093141 | 35 | 167 | 0.0 | 0.0 | 0.00 | 0.00 | 0.00 | 71 | 1008.2 |
| 20260508092639 | 36 | 167 | 0.0 | 0.0 | 0.00 | 0.00 | 0.00 | 70 | 1008.2 |
| 20260508092137 | 36 | 167 | 0.0 | 0.0 | 0.00 | 0.00 | 0.00 | 70 | 1008.0 |
| 20260508091634 | 36 | 167 | 0.0 | 0.0 | 0.00 | 0.00 | 0.00 | 69 | 1008.1 |
| 20260508091131 | 36 | 167 | 0.0 | 0.0 | 0.00 | 0.00 | 0.00 | 69 | 1008.3 |
| 20260508090629 | 37 | 167 | 0.0 | 0.0 | 0.00 | 0.00 | 0.00 | 68 | 1008.0 |
| 20260508090126 | 37 | 167 | 0.0 | 0.0 | 0.00 | 0.00 | 0.00 | 67 | 1008.2 |
| 20260508085622 | 37 | 167 | 0.0 | 0.0 | 0.00 | 0.00 | 0.00 | 67 | 1008.2 |
| 20260508085120 | 37 | 167 | 0.0 | 0.0 | 0.00 | 0.00 | 0.00 | 66 | 1008.2 |
| 20260508084616 | 37 | 167 | 0.0 | 0.0 | 0.00 | 0.00 | 0.00 | 66 | 1008.1 |
| 20260508084113 | 37 | 167 | 0.0 | 0.0 | 0.00 | 0.00 | 0.00 | 65 | 1008.2 |
| 20260508083611 | 37 | 167 | 0.0 | 0.0 | 0.00 | 0.00 | 0.00 | 65 | 1008.3 |
| 20260508083108 | 37 | 167 | 0.0 | 0.0 | 0.00 | 0.00 | 0.00 | 65 | 1008.3 |
| 20260508082603 | 37 | 167 | 0.0 | 0.0 | 0.00 | 0.00 | 0.00 | 65 | 1008.1 |
| 20260508082100 | 37 | 167 | 0.0 | 0.0 | 0.00 | 0.00 | 0.00 | 65 | 1008.3 |
| 20260508081558 | 37 | 167 | 0.0 | 0.0 | 0.00 | 0.00 | 0.00 | 66 | 1008.1 |
| 20260508081053 | 37 | 167 | 0.0 | 0.0 | 0.00 | 0.00 | 0.00 | 65 | 1008.3 |
| 20260508080551 | 37 | 167 | 0.0 | 0.0 | 0.00 | 0.00 | 0.00 | 66 | 1008.3 |
| 20260508080049 | 37 | 167 | 0.0 | 0.0 | 0.00 | 0.00 | 0.00 | 68 | 1008.3 |
| 20260508075545 | 37 | 167 | 0.0 | 0.0 | 0.00 | 0.00 | 0.00 | 67 | 1008.5 |
| 20260508075043 | 37 | 168 | 0.0 | 0.0 | 0.00 | 0.00 | 0.00 | 67 | 1008.4 |
| 20260508074540 | 37 | 169 | 0.0 | 0.0 | 0.00 | 0.00 | 0.00 | 68 | 1008.3 |
| 20260508074037 | 37 | 170 | 0.0 | 0.0 | 0.00 | 0.00 | 0.00 | 68 | 1008.5 |
| 20260508073534 | 37 | 170 | 0.0 | 0.0 | 0.00 | 0.00 | 0.00 | 67 | 1008.6 |
| 20260508073032 | 37 | 170 | 0.0 | 0.0 | 0.00 | 0.00 | 0.00 | 68 | 1008.6 |
| 20260508072527 | 37 | 170 | 0.0 | 0.0 | 0.00 | 0.00 | 0.00 | 68 | 1008.7 |
| 20260508072025 | 37 | 170 | 0.0 | 0.0 | 0.00 | 0.00 | 0.00 | 68 | 1008.7 |
| 20260508071523 | 37 | 170 | 0.0 | 0.0 | 0.00 | 0.00 | 0.00 | 68 | 1008.7 |
| 20260508071020 | 37 | 170 | 0.0 | 0.0 | 0.00 | 0.00 | 0.00 | 67 | 1008.6 |
| 20260508070518 | 38 | 170 | 0.0 | 0.0 | 0.00 | 0.00 | 0.00 | 68 | 1008.7 |
| 20260508070016 | 38 | 170 | 0.0 | 0.0 | 0.00 | 0.00 | 0.00 | 68 | 1008.8 |
| 20260508065513 | 38 | 170 | 0.0 | 0.0 | 0.00 | 0.00 | 0.00 | 68 | 1008.7 |
| 20260508065011 | 38 | 170 | 0.0 | 0.0 | 0.00 | 0.00 | 0.00 | 68 | 1008.9 |
| 20260508064509 | 38 | 170 | 0.0 | 0.0 | 0.00 | 0.00 | 0.00 | 68 | 1008.7 |
| 20260508064006 | 38 | 170 | 0.0 | 0.0 | 0.00 | 0.00 | 0.00 | 68 | 1008.8 |
| 20260508063503 | 38 | 170 | 0.0 | 0.0 | 0.00 | 0.00 | 0.00 | 68 | 1008.8 |
| 20260508063001 | 38 | 170 | 0.0 | 0.0 | 0.00 | 0.00 | 0.00 | 68 | 1008.8 |
| 20260508062459 | 38 | 170 | 0.0 | 0.0 | 0.00 | 0.00 | 0.00 | 68 | 1008.9 |
| 20260508061955 | 38 | 170 | 0.0 | 0.0 | 0.00 | 0.00 | 0.00 | 68 | 1009.0 |
| 20260508061453 | 38 | 170 | 0.0 | 0.0 | 0.00 | 0.00 | 0.00 | 67 | 1009.0 |
| 20260508060948 | 38 | 170 | 0.0 | 0.0 | 0.00 | 0.00 | 0.00 | 67 | 1009.4 |
| 20260508060446 | 38 | 170 | 0.0 | 0.0 | 0.00 | 0.00 | 0.00 | 67 | 1009.0 |
| 20260508055943 | 38 | 170 | 0.0 | 0.0 | 0.00 | 0.00 | 0.00 | 67 | 1009.2 |
| 20260508055439 | 38 | 170 | 0.0 | 0.0 | 0.00 | 0.00 | 0.00 | 67 | 1009.2 |
| 20260508054936 | 38 | 170 | 0.0 | 0.0 | 0.00 | 0.00 | 0.00 | 67 | 1009.2 |
| 20260508054433 | 39 | 170 | 0.0 | 0.0 | 0.00 | 0.00 | 0.00 | 67 | 1009.3 |
| 20260508053930 | 39 | 170 | 0.0 | 0.0 | 0.00 | 0.00 | 0.00 | 66 | 1009.0 |
| 20260508053427 | 39 | 170 | 0.0 | 0.0 | 0.00 | 0.00 | 0.00 | 66 | 1008.9 |
| 20260508052925 | 39 | 170 | 0.0 | 0.0 | 0.00 | 0.00 | 0.00 | 65 | 1009.4 |
| 20260508052422 | 40 | 170 | 0.0 | 0.0 | 0.00 | 0.00 | 0.00 | 65 | 1009.2 |
| 20260508051918 | 40 | 170 | 0.0 | 0.0 | 0.00 | 0.00 | 0.00 | 63 | 1009.4 |
| 20260508051414 | 40 | 170 | 0.0 | 0.0 | 0.00 | 0.00 | 0.00 | 64 | 1009.5 |
| 20260508050910 | 40 | 163 | 0.0 | 0.0 | 0.00 | 0.00 | 0.00 | 64 | 1009.6 |
| 20260508050407 | 40 | 166 | 0.0 | 0.0 | 0.00 | 0.00 | 0.00 | 64 | 1009.3 |
| 20260508045903 | 40 | 166 | 0.0 | 0.0 | 0.00 | 0.00 | 0.00 | 63 | 1009.6 |
| 20260508045401 | 40 | 166 | 0.0 | 0.0 | 0.00 | 0.00 | 0.00 | 63 | 1009.4 |
| 20260508044858 | 40 | 166 | 0.0 | 0.0 | 0.00 | 0.00 | 0.00 | 62 | 1009.4 |
| 20260508044355 | 40 | 166 | 0.0 | 0.0 | 0.00 | 0.00 | 0.00 | 63 | 1009.4 |
| 20260508043850 | 40 | 166 | 0.0 | 0.0 | 0.00 | 0.00 | 0.00 | 61 | 1009.6 |
| 20260508043348 | 41 | 166 | 0.0 | 0.0 | 0.00 | 0.00 | 0.00 | 61 | 1009.6 |
| 20260508042844 | 41 | 166 | 0.0 | 0.0 | 0.00 | 0.00 | 0.00 | 59 | 1009.7 |
| 20260508042342 | 41 | 166 | 0.0 | 0.0 | 0.00 | 0.00 | 0.00 | 61 | 1009.7 |
| 20260508041839 | 41 | 166 | 0.0 | 0.0 | 0.00 | 0.00 | 0.00 | 61 | 1009.7 |
| 20260508041335 | 41 | 166 | 0.0 | 0.0 | 0.00 | 0.00 | 0.00 | 60 | 1009.6 |
| 20260508040832 | 41 | 166 | 0.0 | 0.0 | 0.00 | 0.00 | 0.00 | 60 | 1009.5 |
| 20260508040329 | 41 | 166 | 0.0 | 0.0 | 0.00 | 0.00 | 0.00 | 61 | 1009.9 |
| 20260508035826 | 41 | 166 | 0.0 | 0.0 | 0.00 | 0.00 | 0.00 | 60 | 1009.8 |
| 20260508035324 | 42 | 166 | 0.0 | 0.0 | 0.00 | 0.00 | 0.00 | 59 | 1009.7 |
| 20260508034820 | 42 | 166 | 0.0 | 0.0 | 0.00 | 0.00 | 0.00 | 58 | 1009.9 |
| 20260508034318 | 42 | 166 | 0.0 | 0.0 | 0.00 | 0.00 | 0.00 | 58 | 1009.9 |
| 20260508033814 | 42 | 166 | 0.0 | 0.0 | 0.00 | 0.00 | 0.00 | 57 | 1010.0 |
| 20260508033313 | 42 | 166 | 0.0 | 0.0 | 0.00 | 0.00 | 0.00 | 57 | 1010.1 |
| 20260508032810 | 43 | 166 | 0.0 | 0.0 | 0.00 | 0.00 | 0.00 | 57 | 1009.9 |